createdAt,value
2022-10-12T00:02:04.167Z,100568.28
2022-10-12T00:04:32.283Z,100565.66
2022-10-12T00:06:59.237Z,100565.63
2022-10-12T00:09:31.434Z,100565.63
2022-10-12T00:11:59.532Z,100576.13
2022-10-12T00:14:27.486Z,100580.47
2022-10-12T00:16:55.482Z,100576.09
2022-10-12T00:19:25.438Z,100576.09
2022-10-12T00:21:52.442Z,100567.38
2022-10-12T00:24:20.438Z,100570.00
2022-10-12T00:26:50.676Z,100571.75
2022-10-12T00:29:19.164Z,100570.00
2022-10-12T00:31:46.165Z,100569.97
2022-10-12T00:34:15.594Z,100576.88
2022-10-12T00:36:42.677Z,100572.59
2022-10-12T00:39:11.258Z,100572.56
2022-10-12T00:41:44.286Z,100569.94
2022-10-12T00:44:38.061Z,100577.81
2022-10-12T00:47:16.438Z,100572.53
2022-10-12T00:49:51.625Z,100573.28
2022-10-12T00:52:24.013Z,100571.47
2022-10-12T00:54:53.963Z,100574.94
2022-10-12T00:57:22.873Z,100575.75
2022-10-12T01:00:06.949Z,100574.94
2022-10-12T01:02:38.547Z,100576.56
2022-10-12T01:05:09.207Z,100580.84
2022-10-12T01:07:36.639Z,100579.97
2022-10-12T01:10:04.361Z,100576.66
2022-10-12T01:12:38.903Z,100574.13
2022-10-12T01:15:07.833Z,100579.41
2022-10-12T01:18:32.117Z,100586.34
2022-10-12T01:21:10.223Z,100589.00
2022-10-12T01:24:18.895Z,100582.00
2022-10-12T01:27:03.582Z,100582.81
2022-10-12T01:30:09.154Z,100586.25
2022-10-12T01:32:53.005Z,100588.94
2022-10-12T01:35:21.793Z,100584.53
2022-10-12T01:37:51.799Z,100581.97
2022-10-12T01:40:33.922Z,100585.50
2022-10-12T01:43:02.739Z,100574.16
2022-10-12T01:45:30.727Z,100588.06
2022-10-12T01:48:00.057Z,100581.94
2022-10-12T01:50:40.121Z,100581.88
2022-10-12T01:53:28.153Z,100583.56
2022-10-12T01:56:03.182Z,100589.69
2022-10-12T01:58:57.662Z,100579.25
2022-10-12T02:01:45.115Z,100583.47
2022-10-12T02:04:39.903Z,100586.78
2022-10-12T02:07:42.997Z,100577.50
2022-10-12T02:10:23.778Z,100579.31
2022-10-12T02:12:57.703Z,100574.88
2022-10-12T02:15:27.697Z,100578.34
2022-10-12T02:17:58.757Z,100585.06
2022-10-12T02:20:28.126Z,100586.75
2022-10-12T02:22:56.119Z,100577.25
2022-10-12T02:25:28.668Z,100580.75
2022-10-12T02:28:27.983Z,100584.25
2022-10-12T02:31:16.124Z,100581.63
2022-10-12T02:33:57.090Z,100581.72
2022-10-12T02:36:33.613Z,100580.03
2022-10-12T02:39:07.863Z,100580.03
2022-10-12T02:41:41.319Z,100582.41
2022-10-12T02:44:11.016Z,100584.97
2022-10-12T02:46:40.507Z,100591.22
2022-10-12T02:49:12.039Z,100592.22
2022-10-12T02:51:40.837Z,100587.91
2022-10-12T02:54:08.881Z,100587.13
2022-10-12T02:56:47.317Z,100585.31
2022-10-12T02:59:16.086Z,100587.94
2022-10-12T03:01:43.470Z,100592.31
2022-10-12T03:04:13.748Z,100594.81
2022-10-12T03:06:42.667Z,100582.44
2022-10-12T03:09:15.898Z,100590.19
2022-10-12T03:11:44.924Z,100592.78
2022-10-12T03:14:19.695Z,100590.03
2022-10-12T03:16:46.907Z,100596.00
2022-10-12T03:19:14.438Z,100592.72
2022-10-12T03:21:41.902Z,100589.25
2022-10-12T03:24:10.054Z,100590.22
2022-10-12T03:26:38.044Z,100585.81
2022-10-12T03:29:05.601Z,100588.44
2022-10-12T03:31:34.553Z,100591.81
2022-10-12T03:34:01.645Z,100595.97
2022-10-12T03:36:28.769Z,100599.47
2022-10-12T03:38:55.877Z,100598.69
2022-10-12T03:41:22.966Z,100585.00
2022-10-12T03:43:49.933Z,100594.59
2022-10-12T03:46:17.003Z,100589.34
2022-10-12T03:48:44.017Z,100593.53
2022-10-12T03:51:12.118Z,100598.53
2022-10-12T03:53:45.492Z,100601.97
2022-10-12T03:56:13.036Z,100598.38
2022-10-12T03:58:40.022Z,100596.81
2022-10-12T04:01:07.077Z,100608.06
2022-10-12T04:03:34.063Z,100605.28
2022-10-12T04:06:01.067Z,100599.97
2022-10-12T04:08:28.743Z,100600.91
2022-10-12T04:10:55.738Z,100598.16
2022-10-12T04:13:23.214Z,100600.00
2022-10-12T04:15:50.203Z,100606.06
2022-10-12T04:18:18.327Z,100602.53
2022-10-12T04:20:48.603Z,100608.06
2022-10-12T04:23:16.588Z,100606.41
2022-10-12T04:25:43.756Z,100609.00
2022-10-12T04:28:10.832Z,100597.47
2022-10-12T04:30:37.994Z,100608.69
2022-10-12T04:33:05.707Z,100606.78
2022-10-12T04:35:32.871Z,100602.44
2022-10-12T04:37:59.989Z,100599.28
2022-10-12T04:40:26.973Z,100602.06
2022-10-12T04:42:53.977Z,100599.22
2022-10-12T04:45:21.030Z,100606.03
2022-10-12T04:47:49.428Z,100612.81
2022-10-12T04:50:16.443Z,100611.25
2022-10-12T04:52:43.502Z,100621.69
2022-10-12T04:55:10.557Z,100617.34
2022-10-12T04:57:37.757Z,100613.69
2022-10-12T05:00:06.026Z,100621.25
2022-10-12T05:02:33.012Z,100617.78
2022-10-12T05:05:02.204Z,100613.75
2022-10-12T05:07:29.217Z,100614.56
2022-10-12T05:09:56.204Z,100611.16
2022-10-12T05:12:23.228Z,100613.53
2022-10-12T05:14:50.174Z,100625.53
2022-10-12T05:17:18.169Z,100625.50
2022-10-12T05:19:45.218Z,100619.22
2022-10-12T05:22:12.249Z,100619.31
2022-10-12T05:24:40.219Z,100619.81
2022-10-12T05:27:08.233Z,100617.16
2022-10-12T05:29:36.219Z,100628.19
2022-10-12T05:32:05.355Z,100630.03
2022-10-12T05:34:33.786Z,100627.28
2022-10-12T05:37:00.741Z,100622.13
2022-10-12T05:39:28.049Z,100625.69
2022-10-12T05:41:56.075Z,100625.94
2022-10-12T05:44:23.237Z,100622.63
2022-10-12T05:46:50.224Z,100615.84
2022-10-12T05:49:18.261Z,100619.41
2022-10-12T05:51:45.197Z,100613.16
2022-10-12T05:54:12.390Z,100628.88
2022-10-12T05:56:39.457Z,100625.97
2022-10-12T05:59:06.503Z,100622.41
2022-10-12T06:01:33.524Z,100631.00
2022-10-12T06:04:00.617Z,100630.28
2022-10-12T06:06:27.604Z,100626.94
2022-10-12T06:08:54.537Z,100625.44
2022-10-12T06:11:21.803Z,100627.31
2022-10-12T06:13:48.799Z,100623.09
2022-10-12T06:16:15.826Z,100632.78
2022-10-12T06:18:42.737Z,100628.28
2022-10-12T06:21:31.961Z,100634.44
2022-10-12T06:23:56.747Z,100638.03
2022-10-12T06:26:25.066Z,100634.78
2022-10-12T06:28:52.161Z,100640.00
2022-10-12T06:31:19.197Z,100635.78
2022-10-12T06:33:46.099Z,100641.84
2022-10-12T06:36:13.089Z,100631.47
2022-10-12T06:38:41.027Z,100636.72
2022-10-12T06:41:08.123Z,100636.81
2022-10-12T06:43:35.213Z,100631.72
2022-10-12T06:46:03.355Z,100635.28
2022-10-12T06:48:30.562Z,100634.47
2022-10-12T06:50:57.544Z,100640.63
2022-10-12T06:53:25.858Z,100644.09
2022-10-12T06:55:52.827Z,100645.03
2022-10-12T06:58:19.846Z,100633.69
2022-10-12T07:00:46.866Z,100640.69
2022-10-12T07:03:14.585Z,100641.56
2022-10-12T07:05:41.607Z,100644.16
2022-10-12T07:08:08.676Z,100645.84
2022-10-12T07:10:35.704Z,100644.91
2022-10-12T07:13:02.682Z,100644.84
2022-10-12T07:15:29.610Z,100640.38
2022-10-12T07:17:56.618Z,100647.31
2022-10-12T07:20:23.653Z,100637.47
2022-10-12T07:22:50.734Z,100655.66
2022-10-12T07:25:17.787Z,100644.09
2022-10-12T07:30:36.073Z,100643.72
2022-10-12T07:33:03.145Z,100639.13
2022-10-12T07:35:30.148Z,100647.78
2022-10-12T07:37:57.069Z,100639.75
2022-10-12T07:40:26.577Z,100638.59
2022-10-12T07:43:14.723Z,100644.47
2022-10-12T07:45:41.515Z,100642.31
2022-10-12T07:48:08.502Z,100639.34
2022-10-12T07:50:35.535Z,100641.59
2022-10-12T07:53:03.516Z,100637.03
2022-10-12T07:55:32.287Z,100637.84
2022-10-12T07:58:00.301Z,100645.44
2022-10-12T08:00:28.926Z,100637.97
2022-10-12T08:02:56.112Z,100648.13
2022-10-12T08:05:23.590Z,100644.06
2022-10-12T08:07:52.093Z,100644.72
2022-10-12T08:10:20.302Z,100644.50
2022-10-12T08:12:51.874Z,100636.34
2022-10-12T08:15:19.413Z,100644.44
2022-10-12T08:17:47.542Z,100642.38
2022-10-12T08:23:00.069Z,100644.09
2022-10-12T08:25:27.297Z,100639.56
2022-10-12T08:27:55.597Z,100643.66
2022-10-12T08:30:27.081Z,100641.19
2022-10-12T08:32:54.253Z,100638.75
2022-10-12T08:35:21.362Z,100646.06
2022-10-12T08:37:48.394Z,100638.16
2022-10-12T08:40:27.067Z,100641.84
2022-10-12T08:42:59.597Z,100640.03
2022-10-12T08:45:51.565Z,100638.16
2022-10-12T08:48:24.539Z,100643.38
2022-10-12T08:50:59.245Z,100645.72
2022-10-12T08:53:44.505Z,100649.09
2022-10-12T08:56:15.883Z,100639.63
2022-10-12T08:58:44.317Z,100628.81
2022-10-12T09:01:37.512Z,100631.44
2022-10-12T09:04:16.628Z,100640.91
2022-10-12T09:06:47.893Z,100640.59
2022-10-12T09:09:23.970Z,100643.75
2022-10-12T09:11:58.757Z,100638.19
2022-10-12T09:14:30.963Z,100633.22
2022-10-12T09:17:00.636Z,100634.16
2022-10-12T09:20:02.578Z,100640.03
2022-10-12T09:22:30.699Z,100633.84
2022-10-12T09:24:59.592Z,100637.78
2022-10-12T09:27:31.244Z,100630.34
2022-10-12T09:30:04.646Z,100638.28
2022-10-12T09:32:36.665Z,100632.78
2022-10-12T09:35:04.672Z,100636.41
2022-10-12T09:37:33.539Z,100624.97
2022-10-12T09:40:01.604Z,100629.03
2022-10-12T09:42:28.570Z,100633.16
2022-10-12T09:45:18.909Z,100639.16
2022-10-12T09:48:12.659Z,100627.94
2022-10-12T09:50:52.337Z,100633.66
2022-10-12T09:53:28.167Z,100631.03
2022-10-12T09:56:02.958Z,100630.53
2022-10-12T09:58:30.772Z,100626.66
2022-10-12T10:01:19.590Z,100626.00
2022-10-12T10:03:48.753Z,100623.81
2022-10-12T10:06:24.955Z,100620.97
2022-10-12T10:08:53.756Z,100610.06
2022-10-12T10:11:28.305Z,100616.41
2022-10-12T10:13:55.842Z,100613.22
2022-10-12T10:16:26.285Z,100606.66
2022-10-12T10:18:58.879Z,100608.22
2022-10-12T10:21:36.526Z,100606.66
2022-10-12T10:24:19.512Z,100611.38
2022-10-12T10:26:58.460Z,100603.56
2022-10-12T10:29:33.078Z,100598.88
2022-10-12T10:32:30.198Z,100604.78
2022-10-12T10:35:12.239Z,100606.31
2022-10-12T10:37:49.713Z,100598.03
2022-10-12T10:40:31.102Z,100594.78
2022-10-12T10:43:18.937Z,100599.34
2022-10-12T10:45:52.986Z,100595.41
2022-10-12T10:48:28.225Z,100590.19
2022-10-12T10:51:01.515Z,100588.16
2022-10-12T10:53:33.554Z,100601.00
2022-10-12T10:56:09.373Z,100590.44
2022-10-12T10:58:38.368Z,100599.41
2022-10-12T11:01:31.791Z,100598.03
2022-10-12T11:04:11.750Z,100596.69
2022-10-12T11:06:47.185Z,100585.78
2022-10-12T11:09:20.789Z,100588.97
2022-10-12T11:12:02.834Z,100588.75
2022-10-12T11:14:37.437Z,100590.19
2022-10-12T11:17:13.106Z,100585.66
2022-10-12T11:20:02.218Z,100578.94
2022-10-12T11:22:32.646Z,100577.31
2022-10-12T11:25:06.740Z,100580.22
2022-10-12T11:27:41.955Z,100573.66
2022-10-12T11:30:21.257Z,100574.13
2022-10-12T11:33:08.934Z,100563.06
2022-10-12T11:35:44.518Z,100569.13
2022-10-12T11:38:40.603Z,100572.09
2022-10-12T11:44:31.804Z,100552.06
2022-10-12T11:47:06.683Z,100551.22
2022-10-12T11:49:52.076Z,100554.59
2022-10-12T11:52:23.837Z,100550.56
2022-10-12T11:55:01.205Z,100545.63
2022-10-12T11:57:34.268Z,100550.81
2022-10-12T12:00:29.917Z,100546.88
2022-10-12T12:03:17.791Z,100543.00
2022-10-12T12:05:46.897Z,100543.03
2022-10-12T12:08:43.805Z,100541.63
2022-10-12T12:11:25.605Z,100538.09
2022-10-12T12:14:21.185Z,100538.31
2022-10-12T12:16:49.976Z,100540.94
2022-10-12T12:19:43.546Z,100533.53
2022-10-12T12:22:50.564Z,100531.44
2022-10-12T12:25:30.740Z,100532.38
2022-10-12T12:28:05.776Z,100532.38
2022-10-12T12:30:40.886Z,100527.75
2022-10-12T12:33:26.882Z,100529.81
2022-10-12T12:36:06.720Z,100534.09
2022-10-12T12:38:35.214Z,100528.59
2022-10-12T12:41:22.345Z,100534.00
2022-10-12T12:43:56.409Z,100532.94
2022-10-12T12:46:26.303Z,100534.81
2022-10-12T12:48:53.248Z,100534.34
2022-10-12T12:51:32.957Z,100531.94
2022-10-12T12:54:06.187Z,100523.13
2022-10-12T12:56:47.472Z,100522.56
2022-10-12T12:59:20.457Z,100520.63
2022-10-12T13:02:24.783Z,100514.38
2022-10-12T13:05:44.148Z,100512.13
2022-10-12T13:08:23.276Z,100516.97
2022-10-12T13:11:06.164Z,100507.53
2022-10-12T13:13:50.427Z,100511.88
2022-10-12T13:19:26.807Z,100514.13
2022-10-12T13:21:57.194Z,100501.63
2022-10-12T13:24:30.133Z,100507.69
2022-10-12T13:27:16.644Z,100491.28
2022-10-12T13:30:09.143Z,100496.34
2022-10-12T13:32:44.870Z,100496.56
2022-10-12T13:35:31.762Z,100489.34
2022-10-12T13:38:03.251Z,100490.41
2022-10-12T13:40:33.744Z,100485.41
2022-10-12T13:43:28.068Z,100482.47
2022-10-12T13:45:55.101Z,100482.16
2022-10-12T13:48:46.314Z,100477.78
2022-10-12T13:51:25.010Z,100476.09
2022-10-12T13:53:52.142Z,100474.06
2022-10-12T13:56:23.291Z,100475.09
2022-10-12T13:58:58.996Z,100475.75
2022-10-12T14:01:26.634Z,100482.47
2022-10-12T14:04:04.704Z,100476.44
2022-10-12T14:06:38.629Z,100473.72
2022-10-12T14:09:15.397Z,100481.56
2022-10-12T14:11:43.591Z,100468.94
2022-10-12T14:14:31.557Z,100477.41
2022-10-12T14:16:58.597Z,100467.91
2022-10-12T14:19:53.513Z,100473.00
2022-10-12T14:22:25.517Z,100470.16
2022-10-12T14:25:11.287Z,100465.41
2022-10-12T14:27:40.479Z,100466.47
2022-10-12T14:30:21.387Z,100460.31
2022-10-12T14:32:50.063Z,100462.69
2022-10-12T14:35:22.178Z,100463.03
2022-10-12T14:37:52.065Z,100455.31
2022-10-12T14:40:35.020Z,100452.09
2022-10-12T14:43:05.488Z,100445.00
2022-10-12T14:45:33.178Z,100440.31
2022-10-12T14:48:01.843Z,100447.69
2022-10-12T14:50:31.809Z,100444.91
2022-10-12T14:53:07.918Z,100447.41
2022-10-12T14:55:35.431Z,100440.72
2022-10-12T14:58:03.967Z,100441.31
2022-10-12T15:00:33.521Z,100442.47
2022-10-12T15:03:01.634Z,100447.91
2022-10-12T15:05:32.079Z,100442.09
2022-10-12T15:08:07.672Z,100434.81
2022-10-12T15:10:36.252Z,100443.78
2022-10-12T15:13:04.470Z,100443.22
2022-10-12T15:15:45.189Z,100439.34
2022-10-12T15:18:12.320Z,100436.69
2022-10-12T15:20:39.901Z,100435.44
2022-10-12T15:23:07.119Z,100436.16
2022-10-12T15:25:37.395Z,100433.41
2022-10-12T15:28:04.610Z,100427.22
2022-10-12T15:30:33.306Z,100442.50
2022-10-12T15:33:03.234Z,100439.44
2022-10-12T15:35:34.180Z,100442.41
2022-10-12T15:38:01.651Z,100436.63
2022-10-12T15:40:30.954Z,100437.97
2022-10-12T15:42:58.525Z,100439.13
2022-10-12T15:45:33.531Z,100440.81
2022-10-12T15:48:00.930Z,100437.53
2022-10-12T15:50:34.613Z,100431.34
2022-10-12T15:53:01.747Z,100443.44
2022-10-12T15:55:30.105Z,100444.16
2022-10-12T15:57:57.577Z,100439.03
2022-10-12T16:00:27.593Z,100446.28
2022-10-12T16:02:56.442Z,100441.22
2022-10-12T16:05:26.802Z,100440.09
2022-10-12T16:07:54.879Z,100440.13
2022-10-12T16:10:24.767Z,100427.66
2022-10-12T16:12:53.903Z,100432.97
2022-10-12T16:15:22.356Z,100445.63
2022-10-12T16:17:50.388Z,100441.06
2022-10-12T16:20:18.018Z,100436.41
2022-10-12T16:22:45.583Z,100438.16
2022-10-12T16:25:14.637Z,100434.63
2022-10-12T16:27:43.597Z,100435.19
2022-10-12T16:30:11.784Z,100437.41
2022-10-12T16:32:39.882Z,100434.66
2022-10-12T16:35:07.664Z,100439.06
2022-10-12T16:37:35.258Z,100447.34
2022-10-12T16:40:04.282Z,100439.41
2022-10-12T16:42:32.582Z,100448.97
2022-10-12T16:45:00.809Z,100450.03
2022-10-12T16:47:27.971Z,100452.91
2022-10-12T16:49:56.283Z,100449.41
2022-10-12T16:52:24.921Z,100445.66
2022-10-12T16:54:53.191Z,100452.75
2022-10-12T16:57:20.994Z,100445.97
2022-10-12T16:59:50.569Z,100454.69
2022-10-12T17:02:19.905Z,100458.06
2022-10-12T17:04:48.368Z,100454.81
2022-10-12T17:07:15.590Z,100455.09
2022-10-12T17:09:42.643Z,100443.75
2022-10-12T17:12:09.745Z,100457.44
2022-10-12T17:14:36.847Z,100465.41
2022-10-12T17:17:04.496Z,100449.81
2022-10-12T17:19:34.326Z,100451.75
2022-10-12T17:22:04.923Z,100449.28
2022-10-12T17:24:34.769Z,100449.72
2022-10-12T17:27:11.450Z,100452.81
2022-10-12T17:29:41.561Z,100451.28
2022-10-12T17:32:10.843Z,100449.53
2022-10-12T17:34:41.143Z,100444.47
2022-10-12T17:37:11.783Z,100442.31
2022-10-12T17:39:43.063Z,100440.94
2022-10-12T17:42:10.998Z,100440.13
2022-10-12T17:44:38.715Z,100436.03
2022-10-12T17:47:06.178Z,100433.97
2022-10-12T17:49:33.264Z,100438.03
2022-10-12T17:52:02.260Z,100442.56
2022-10-12T17:54:29.620Z,100443.97
2022-10-12T17:56:57.786Z,100440.31
2022-10-12T17:59:25.708Z,100443.44
2022-10-12T18:01:53.438Z,100446.81
2022-10-12T18:04:21.540Z,100446.59
2022-10-12T18:06:49.258Z,100445.88
2022-10-12T18:09:17.624Z,100441.38
2022-10-12T18:11:44.858Z,100437.81
2022-10-12T18:14:13.558Z,100439.34
2022-10-12T18:16:42.246Z,100445.88
2022-10-12T18:19:12.018Z,100444.56
2022-10-12T18:21:39.825Z,100442.75
2022-10-12T18:24:16.774Z,100438.56
2022-10-12T18:26:47.903Z,100441.97
2022-10-12T18:29:15.596Z,100448.16
2022-10-12T18:31:42.737Z,100444.66
2022-10-12T18:34:09.867Z,100447.34
2022-10-12T18:36:37.374Z,100440.31
2022-10-12T18:39:05.332Z,100452.56
2022-10-12T18:41:32.802Z,100448.97
2022-10-12T18:44:02.892Z,100447.19
2022-10-12T18:46:34.257Z,100446.38
2022-10-12T18:49:05.410Z,100455.16
2022-10-12T18:51:38.695Z,100449.03
2022-10-12T18:54:07.297Z,100446.47
2022-10-12T18:56:37.357Z,100450.03
2022-10-12T18:59:05.761Z,100450.94
2022-10-12T19:01:34.378Z,100452.84
2022-10-12T19:04:02.533Z,100448.38
2022-10-12T19:06:40.360Z,100451.13
2022-10-12T19:09:07.710Z,100448.66
2022-10-12T19:11:35.090Z,100446.31
2022-10-12T19:14:05.052Z,100455.31
2022-10-12T19:16:33.888Z,100455.50
2022-10-12T19:19:04.705Z,100468.06
2022-10-12T19:21:32.307Z,100462.06
2022-10-12T19:24:02.926Z,100465.56
2022-10-12T19:26:32.749Z,100471.06
2022-10-12T19:29:00.858Z,100472.78
2022-10-12T19:31:31.255Z,100465.72
2022-10-12T19:34:01.082Z,100464.28
2022-10-12T19:36:30.085Z,100464.13
2022-10-12T19:39:04.045Z,100459.53
2022-10-12T19:41:32.076Z,100451.81
2022-10-12T19:44:02.990Z,100451.97
2022-10-12T19:46:30.234Z,100451.91
2022-10-12T19:48:59.535Z,100444.00
2022-10-12T19:51:28.885Z,100446.56
2022-10-12T19:53:58.308Z,100437.84
2022-10-12T19:56:26.859Z,100450.13
2022-10-12T19:58:57.365Z,100438.78
2022-10-12T20:01:27.622Z,100444.19
2022-10-12T20:03:55.584Z,100439.78
2022-10-12T20:06:27.346Z,100438.88
2022-10-12T20:08:56.942Z,100436.34
2022-10-12T20:11:25.178Z,100428.50
2022-10-12T20:13:53.126Z,100433.81
2022-10-12T20:16:22.496Z,100432.09
2022-10-12T20:18:51.324Z,100424.44
2022-10-12T20:21:22.021Z,100428.25
2022-10-12T20:23:50.201Z,100430.72
2022-10-12T20:26:20.818Z,100429.97
2022-10-12T20:28:48.523Z,100432.94
2022-10-12T20:31:15.540Z,100437.09
2022-10-12T20:33:42.517Z,100433.66
2022-10-12T20:36:22.754Z,100430.94
2022-10-12T20:38:51.370Z,100436.16
2022-10-12T20:41:18.941Z,100426.59
2022-10-12T20:43:45.870Z,100434.47
2022-10-12T20:46:15.982Z,100431.84
2022-10-12T20:48:44.676Z,100439.72
2022-10-12T20:51:45.171Z,100434.44
2022-10-12T20:54:16.195Z,100434.47
2022-10-12T20:56:43.642Z,100432.78
2022-10-12T20:59:16.514Z,100432.78
2022-10-12T21:01:43.499Z,100428.41
2022-10-12T21:04:10.695Z,100432.88
2022-10-12T21:06:38.556Z,100431.22
2022-10-12T21:09:06.717Z,100432.44
2022-10-12T21:11:34.753Z,100439.72
2022-10-12T21:14:02.752Z,100424.91
2022-10-12T21:16:29.997Z,100434.44
2022-10-12T21:18:58.089Z,100437.94
2022-10-12T21:21:25.543Z,100428.47
2022-10-12T21:23:58.527Z,100431.06
2022-10-12T21:26:27.801Z,100431.75
2022-10-12T21:28:55.080Z,100433.50
2022-10-12T21:31:23.087Z,100431.81
2022-10-12T21:33:50.508Z,100427.59
2022-10-12T21:36:24.565Z,100424.19
2022-10-12T21:38:51.674Z,100425.81
2022-10-12T21:41:24.457Z,100426.56
2022-10-12T21:43:55.071Z,100430.03
2022-10-12T21:46:29.015Z,100429.09
2022-10-12T21:48:56.996Z,100435.19
2022-10-12T21:51:25.417Z,100432.56
2022-10-12T21:53:54.453Z,100432.56
2022-10-12T21:56:28.063Z,100432.56
2022-10-12T21:58:59.456Z,100440.47
2022-10-12T22:01:30.388Z,100437.00
2022-10-12T22:04:02.067Z,100436.28
2022-10-12T22:06:30.459Z,100436.34
2022-10-12T22:08:59.892Z,100438.16
2022-10-12T22:11:28.831Z,100437.31
2022-10-12T22:14:08.636Z,100444.34
2022-10-12T22:16:37.082Z,100430.41
2022-10-12T22:19:14.715Z,100432.16
2022-10-12T22:21:42.115Z,100437.38
2022-10-12T22:24:09.312Z,100433.06
2022-10-12T22:26:36.777Z,100444.41
2022-10-12T22:29:07.702Z,100438.28
2022-10-12T22:31:35.516Z,100439.97
2022-10-12T22:34:02.735Z,100433.84
2022-10-12T22:36:29.765Z,100434.66
2022-10-12T22:38:56.702Z,100424.19
2022-10-12T22:41:23.957Z,100432.00
2022-10-12T22:43:54.183Z,100424.09
2022-10-12T22:46:25.840Z,100424.13
2022-10-12T22:48:54.110Z,100420.66
2022-10-12T22:51:31.585Z,100432.00
2022-10-12T22:53:58.937Z,100430.28
2022-10-12T22:56:27.746Z,100423.34
2022-10-12T22:58:58.139Z,100423.44
2022-10-12T23:01:26.873Z,100421.59
2022-10-12T23:03:54.923Z,100427.69
2022-10-12T23:06:24.892Z,100422.44
2022-10-12T23:08:52.481Z,100425.97
2022-10-12T23:11:22.387Z,100418.09
2022-10-12T23:13:49.819Z,100430.44
2022-10-12T23:16:28.599Z,100440.91
2022-10-12T23:18:59.651Z,100432.22
2022-10-12T23:21:28.446Z,100433.06
2022-10-12T23:23:55.465Z,100424.38
2022-10-12T23:26:24.927Z,100426.09
2022-10-12T23:28:53.262Z,100419.97
2022-10-12T23:31:25.607Z,100422.56
2022-10-12T23:34:02.919Z,100410.38
2022-10-12T23:36:30.982Z,100419.06
2022-10-12T23:39:01.764Z,100413.88
2022-10-12T23:41:29.788Z,100420.84
2022-10-12T23:43:56.848Z,100418.22
2022-10-12T23:46:24.865Z,100416.50
2022-10-12T23:48:51.941Z,100417.38
2022-10-12T23:51:18.924Z,100413.88
2022-10-12T23:53:46.905Z,100417.34
2022-10-12T23:56:14.942Z,100415.59
2022-10-12T23:58:42.034Z,100415.63
